ADDS METAR Data INFO
IDs: Format: Raw Decoded Include TAF

Data at: 1908 UTC 23 Apr 2018

KDTL 231855Z AUTO 25006KT 10SM CLR 18/03 A3017 RMK AO2
KDTL 231835Z AUTO 24007KT 10SM CLR 17/03 A3018 RMK AO2
KDTL 231815Z AUTO 25009KT 10SM CLR 17/02 A3018 RMK AO2
KDTL 231755Z AUTO 24007KT 10SM CLR 17/02 A3019 RMK AO2
KDTL 231735Z AUTO 26005KT 10SM CLR 17/03 A3020 RMK AO2
KDTL 231715Z AUTO 28006KT 10SM CLR 16/03 A3020 RMK AO2
KDTL 231655Z AUTO 28005KT 10SM CLR 15/03 A3020 RMK AO2
KDTL 231635Z AUTO 28006KT 10SM CLR 15/04 A3020 RMK AO2
KDTL 231615Z AUTO 27007KT 10SM CLR 15/04 A3020 RMK AO2
KDTL 231555Z AUTO 24005KT 10SM CLR 14/04 A3020 RMK AO2
KDTL 231535Z AUTO 25008KT 225V285 10SM CLR 13/04 A3020 RMK AO2
KDTL 231515Z AUTO 23007KT 10SM CLR 12/03 A3020 RMK AO2
KDTL 231455Z AUTO 25006KT 10SM CLR 12/03 A3021 RMK AO2
KDTL 231435Z AUTO 27005KT 10SM CLR 11/03 A3021 RMK AO2
KDTL 231415Z AUTO 24003KT 10SM SCT070 10/03 A3022 RMK AO2
KDTL 231355Z AUTO 00000KT 10SM SCT070 08/02 A3022 RMK AO2
KDTL 231335Z AUTO 00000KT 10SM SCT070 08/02 A3022 RMK AO2
KDTL 231315Z AUTO 22004KT 10SM CLR 08/02 A3022 RMK AO2
KDTL 231255Z AUTO 00000KT 10SM CLR 06/02 A3022 RMK AO2
KDTL 231235Z AUTO 00000KT 10SM CLR 06/01 A3021 RMK AO2
KDTL 231215Z AUTO 16003KT 10SM CLR 05/01 A3021 RMK AO2
KDTL 231155Z AUTO 00000KT 10SM CLR 04/01 A3021 RMK AO2
KDTL 231135Z AUTO 18004KT 10SM CLR 03/00 A3020 RMK AO2
KDTL 231115Z AUTO 17004KT 10SM CLR 03/00 A3020 RMK AO2
KDTL 231055Z AUTO 17005KT 10SM CLR 03/00 A3020 RMK AO2
KDTL 231035Z AUTO 17005KT 10SM CLR 04/00 A3020 RMK AO2
KDTL 231015Z AUTO 18003KT 10SM CLR 05/01 A3020 RMK AO2
KDTL 230955Z AUTO 18005KT 10SM CLR 04/00 A3019 RMK AO2
KDTL 230935Z AUTO 19006KT 10SM CLR 05/01 A3019 RMK AO2
KDTL 230915Z AUTO 20006KT 10SM CLR 05/01 A3019 RMK AO2
KDTL 230855Z AUTO 00000KT 10SM CLR 05/01 A3019 RMK AO2
KDTL 230835Z AUTO 00000KT 10SM CLR 05/01 A3019 RMK AO2
KDTL 230815Z AUTO 00000KT 10SM CLR 06/01 A3019 RMK AO2
KDTL 230755Z AUTO 19003KT 10SM CLR 06/01 A3019 RMK AO2
KDTL 230735Z AUTO 19007KT 10SM CLR 06/01 A3019 RMK AO2
KDTL 230715Z AUTO 20006KT 10SM CLR 06/01 A3020 RMK AO2
KDTL 230655Z AUTO 20006KT 10SM CLR 06/01 A3020 RMK AO2
KDTL 230635Z AUTO 20006KT 10SM CLR 06/01 A3020 RMK AO2
KDTL 230615Z AUTO 21006KT 10SM CLR 07/01 A3020 RMK AO2
KDTL 230555Z AUTO 21006KT 10SM CLR 06/01 A3020 RMK AO2
KDTL 230535Z AUTO 21007KT 10SM CLR 07/02 A3020 RMK AO2
KDTL 230515Z AUTO 20008KT 10SM CLR 07/02 A3020 RMK AO2
KDTL 230455Z AUTO 20008KT 10SM CLR 08/02 A3020 RMK AO2
KDTL 230435Z AUTO 20007KT 10SM CLR 07/01 A3021 RMK AO2
KDTL 230415Z AUTO 20008KT 10SM CLR 07/02 A3020 RMK AO2
KDTL 230355Z AUTO 21007KT 10SM CLR 08/02 A3021 RMK AO2
KDTL 230335Z AUTO 20008KT 10SM CLR 08/02 A3020 RMK AO2
KDTL 230315Z AUTO 20007KT 10SM CLR 08/01 A3021 RMK AO2
KDTL 230255Z AUTO 20006KT 10SM CLR 08/01 A3021 RMK AO2
KDTL 230235Z AUTO 20007KT 10SM CLR 09/02 A3021 RMK AO2
KDTL 230215Z AUTO 19008KT 10SM CLR 10/01 A3020 RMK AO2
KDTL 230155Z AUTO 19006KT 10SM CLR 10/01 A3020 RMK AO2
KDTL 230135Z AUTO 19007KT 10SM CLR 11/02 A3020 RMK AO2
KDTL 230115Z AUTO 19008KT 10SM CLR 12/02 A3020 RMK AO2
KDTL 230055Z AUTO 19009KT 10SM CLR 12/02 A3020 RMK AO2
KDTL 230035Z AUTO 19009KT 10SM CLR 13/02 A3020 RMK AO2
KDTL 230015Z AUTO 19009KT 10SM CLR 14/02 A3020 RMK AO2
KDTL 222355Z AUTO 19010KT 10SM CLR 15/02 A3020 RMK AO2
KDTL 222335Z AUTO 19011KT 10SM CLR 15/02 A3020 RMK AO2
KDTL 222315Z AUTO 21009KT 10SM CLR 15/02 A3020 RMK AO2
KDTL 222255Z AUTO 22011G15KT 10SM CLR 16/01 A3021 RMK AO2
KDTL 222235Z AUTO 22010G16KT 10SM CLR 16/01 A3021 RMK AO2
KDTL 222215Z AUTO 22009KT 10SM CLR 16/01 A3021 RMK AO2
KDTL 222155Z AUTO 22013G17KT 10SM CLR 16/00 A3021 RMK AO2
KDTL 222135Z AUTO 21013G17KT 10SM CLR 17/01 A3021 RMK AO2
KDTL 222115Z AUTO 21011G18KT 10SM CLR 16/00 A3021 RMK AO2
KDTL 222055Z AUTO 22010G15KT 10SM CLR 16/00 A3022 RMK AO2
KDTL 222035Z AUTO 21010G17KT 10SM CLR 16/00 A3023 RMK AO2
KDTL 222015Z AUTO 20012KT 10SM CLR 16/00 A3023 RMK AO2
KDTL 221955Z AUTO 20009G16KT 10SM CLR 16/00 A3023 RMK AO2
KDTL 221935Z AUTO 20014G19KT 10SM CLR 16/00 A3024 RMK AO2
KDTL 221915Z AUTO 20011KT 10SM CLR 16/00 A3024 RMK AO2
KDTL 221855Z AUTO 19012G17KT 10SM CLR 15/00 A3024 RMK AO2
KDTL 221835Z AUTO 19013G16KT 10SM CLR 15/00 A3025 RMK AO2
KDTL 221815Z AUTO 22009KT 10SM CLR 15/M01 A3026 RMK AO2
KDTL 221755Z AUTO 22013G19KT 10SM CLR 16/M02 A3026 RMK AO2
KDTL 221735Z AUTO 18010KT 10SM CLR 15/M01 A3026 RMK AO2
KDTL 221715Z AUTO 19011G16KT 10SM CLR 15/M01 A3026 RMK AO2
KDTL 221655Z AUTO 20010KT 10SM CLR 14/00 A3026 RMK AO2
KDTL 221635Z AUTO 20012KT 10SM CLR 14/00 A3027 RMK AO2
KDTL 221615Z AUTO 20014KT 10SM CLR 13/00 A3027 RMK AO2
KDTL 221555Z AUTO 19010G15KT 10SM CLR 13/00 A3028 RMK AO2
KDTL 221535Z AUTO 18011G16KT 10SM CLR 12/00 A3028 RMK AO2
KDTL 221515Z AUTO 18009KT 10SM CLR 11/01 A3029 RMK AO2
KDTL 221455Z AUTO 18007KT 10SM CLR 11/00 A3030 RMK AO2
KDTL 221435Z AUTO 19005KT 10SM CLR 10/00 A3030 RMK AO2
KDTL 221415Z AUTO 19004KT 10SM CLR 08/00 A3030 RMK AO2
KDTL 221355Z AUTO 17005KT 10SM CLR 07/00 A3030 RMK AO2
KDTL 221335Z AUTO 17004KT 10SM CLR 06/00 A3030 RMK AO2
KDTL 221315Z AUTO 16005KT 10SM CLR 05/00 A3030 RMK AO2
KDTL 221255Z AUTO 15006KT 10SM CLR 03/00 A3030 RMK AO2
KDTL 221235Z AUTO 00000KT 10SM CLR 02/00 A3030 RMK AO2
KDTL 221215Z AUTO 15004KT 10SM CLR 01/00 A3030 RMK AO2
KDTL 221155Z AUTO 15005KT 10SM CLR 01/M01 A3029 RMK AO2
KDTL 221135Z AUTO 00000KT 10SM CLR 00/M01 A3030 RMK AO2
KDTL 221115Z AUTO 00000KT 10SM CLR 01/00 A3030 RMK AO2
KDTL 221055Z AUTO 00000KT 10SM CLR 00/M01 A3030 RMK AO2
KDTL 221035Z AUTO 00000KT 10SM CLR 02/00 A3029 RMK AO2
KDTL 221015Z AUTO 13003KT 10SM CLR 02/00 A3029 RMK AO2
KDTL 220955Z AUTO 00000KT 10SM CLR 03/00 A3030 RMK AO2
KDTL 220935Z AUTO 14003KT 10SM CLR 02/00 A3029 RMK AO2
KDTL 220915Z AUTO 15004KT 10SM CLR 02/00 A3029 RMK AO2
KDTL 220855Z AUTO 16003KT 10SM CLR 02/00 A3030 RMK AO2
KDTL 220835Z AUTO 15005KT 10SM CLR 03/01 A3030 RMK AO2
KDTL 220815Z AUTO 16003KT 10SM CLR 03/01 A3030 RMK AO2
KDTL 220755Z AUTO 17004KT 10SM CLR 03/01 A3030 RMK AO2
KDTL 220735Z AUTO 17004KT 10SM CLR 03/01 A3030 RMK AO2
KDTL 220715Z AUTO 18004KT 10SM CLR 03/01 A3031 RMK AO2